Latest Weather Observations for Redesdale

IDV60801

Issued at 3:05 pm EST Tuesday 2 September 2014 (issued every 30 minutes, with the page automatically refreshed every 10 minutes)

About weather observations | Map of weather stations | Latest weather observations for VIC | Other Formats
Station Details ID: 088051 Name: REDESDALE Lat: -37.02 Lon: 144.52 Height: 290.0 m
Data from the previous 72 hours. | See also: Recent months at Redesdale
Date/Time
EST
Temp
°C
App
Temp
°C
Dew
Point
Rel
Hum
%
Delta-T
°C
Wind Press
QNH
hPa
Press
MSL
hPa
Rain
since 9 am
mm
Dir
 
Spd
km/h
Gust
km/h
Spd
kts
Gust
kts
02/03:00pm 12.3 6.9 6.4 67 2.8 S 24 39 13 21 - - 0.2
02/02:30pm 11.9 5.0 4.6 61 3.4 S 30 39 16 21 - - 0.2
02/02:00pm 12.7 5.2 6.1 64 3.2 S 35 50 19 27 - - 0.0
02/01:30pm 12.9 5.8 5.6 61 3.5 S 32 46 17 25 - - 0.0
02/01:13pm 13.0 5.4 5.7 61 3.5 S 35 54 19 29 - - 0.0
02/01:00pm 13.0 5.3 5.4 60 3.6 S 35 54 19 29 - - 0.0
02/12:30pm 11.7 4.9 5.3 65 3.0 S 30 44 16 24 - - 0.0
02/12:00pm 11.8 4.4 5.2 64 3.1 S 33 46 18 25 - - 0.0
02/11:45am 12.9 6.3 6.0 63 3.3 S 30 50 16 27 - - 0.0
02/11:30am 12.7 6.5 6.1 64 3.2 SSW 28 41 15 22 - - 0.0
02/11:00am 11.9 5.6 5.8 66 2.9 S 28 41 15 22 - - 0.0
02/10:30am 10.7 4.4 5.5 70 2.4 SSW 28 41 15 22 - - 0.0
02/10:00am 10.7 5.2 5.7 71 2.3 SSW 24 44 13 24 - - 0.0
02/09:30am 9.8 3.9 6.0 77 1.8 SSW 26 37 14 20 - - 0.0
02/09:00am 9.6 4.8 5.6 76 1.9 SSW 20 30 11 16 - - 9.6
02/08:30am 8.9 5.1 5.6 80 1.5 SSW 15 24 8 13 - - 9.6
02/08:00am 7.5 4.9 6.0 90 0.7 SSW 9 17 5 9 - - 9.6
02/07:30am 5.3 2.8 4.9 97 0.2 SSW 7 13 4 7 - - 9.6
02/07:00am 2.6 -0.4 2.3 98 0.1 SSW 7 11 4 6 - - 9.6
02/06:30am 2.6 -0.2 2.3 98 0.1 SW 6 7 3 4 - - 9.6
02/06:00am 2.4 -0.6 2.1 98 0.1 SW 7 11 4 6 - - 9.6
02/05:30am 2.9 0.0 2.8 99 0.0 SW 7 9 4 5 - - 9.6
02/05:00am 2.1 -0.7 2.0 99 0.0 SW 6 7 3 4 - - 9.6
02/04:30am 2.5 -0.2 2.4 99 0.0 SW 6 7 3 4 - - 9.6
02/04:00am 1.4 -1.6 1.0 97 0.2 SW 6 7 3 4 - - 9.6
02/03:30am 1.8 -1.3 1.2 96 0.2 S 7 9 4 5 - - 9.6
02/03:00am 4.0 1.5 3.6 97 0.2 WSW 6 9 3 5 - - 9.6
02/02:30am 4.2 1.5 3.9 98 0.1 SW 7 11 4 6 - - 9.6
02/02:00am 4.0 1.5 3.7 98 0.1 WSW 6 9 3 5 - - 9.6
02/01:30am 4.1 2.0 3.7 97 0.2 SW 4 7 2 4 - - 9.6
02/01:00am 4.1 1.0 3.7 97 0.2 SSW 9 13 5 7 - - 9.6
02/12:30am 4.1 0.6 3.7 97 0.2 SW 11 13 6 7 - - 9.6
02/12:00am 4.8 1.9 4.4 97 0.2 SW 9 15 5 8 - - 9.6
 
Date/Time
EST
Temp
°C
App
Temp
°C
Dew
Point
Rel
Hum
%
Delta-T
°C
Wind Press
QNH
hPa
Press
MSL
hPa
Rain
since 9 am
mm
Dir
 
Spd
km/h
Gust
km/h
Spd
kts
Gust
kts
01/11:30pm 4.2 1.5 3.8 97 0.2 SW 7 11 4 6 - - 9.6
01/11:00pm 3.2 -0.1 2.6 96 0.2 SW 9 11 5 6 - - 9.6
01/10:30pm 3.5 0.6 2.6 94 0.4 SSW 7 9 4 5 - - 9.6
01/10:00pm 4.8 2.3 3.9 94 0.4 SW 6 7 3 4 - - 9.6
01/09:30pm 5.4 3.3 3.7 89 0.7 SW 4 7 2 4 - - 9.6
01/09:00pm 6.2 3.8 4.4 88 0.8 SSW 6 7 3 4 - - 9.6
01/08:30pm 7.1 3.9 4.9 86 1.0 WSW 11 17 6 9 - - 9.6
01/08:00pm 7.5 3.2 5.1 85 1.1 S 17 26 9 14 - - 9.6
01/07:30pm 7.3 2.1 5.4 88 0.9 S 22 30 12 16 - - 9.6
01/07:00pm 7.8 3.1 6.1 89 0.8 S 20 30 11 16 - - 9.4
01/06:30pm 8.4 4.0 7.3 93 0.5 SW 20 37 11 20 - - 8.6
01/06:00pm 8.6 8.1 8.0 96 0.3 W 0 0 0 0 - - 7.4
01/05:30pm 8.7 7.5 7.9 95 0.4 W 4 9 2 5 - - 6.6
01/05:00pm 8.9 7.1 7.8 93 0.5 SW 7 13 4 7 - - 5.6
01/04:30pm 11.1 9.8 10.0 93 0.6 NNW 7 11 4 6 - - 4.6
01/04:00pm 11.1 9.8 9.9 92 0.6 N 7 11 4 6 - - 4.6
01/03:30pm 11.2 9.9 9.8 91 0.7 NNW 7 13 4 7 - - 4.6
01/03:00pm 11.3 10.0 9.9 91 0.7 NNW 7 11 4 6 - - 4.6
01/02:30pm 10.9 10.0 10.7 99 0.1 NNW 6 11 3 6 - - 4.6
01/02:00pm 10.3 9.6 10.1 99 0.1 N 4 6 2 3 - - 4.6
01/01:30pm 9.9 9.1 9.6 98 0.2 NNE 4 6 2 3 - - 4.6
01/01:00pm 9.6 9.0 9.1 97 0.3 N 2 4 1 2 - - 4.4
01/12:30pm 9.5 8.1 8.9 96 0.3 N 6 9 3 5 - - 4.0
01/12:00pm 9.4 7.9 8.5 94 0.4 NNE 6 9 3 5 - - 3.6
01/11:30am 9.4 7.8 8.2 92 0.6 NE 6 7 3 4 - - 2.4
01/11:00am 9.8 8.5 7.6 86 1.1 N 4 6 2 3 - - 0.8
01/10:30am 11.1 10.0 5.2 67 2.7 CALM 0 0 0 0 - - 0.0
01/10:00am 11.1 9.7 5.6 69 2.6 N 2 6 1 3 - - 0.0
01/09:30am 10.8 9.8 5.8 71 2.4 CALM 0 4 0 2 - - 0.0
01/09:00am 10.1 8.4 5.7 74 2.1 N 4 6 2 3 - - 0.0
01/08:30am 9.8 7.9 5.0 72 2.2 N 4 4 2 2 - - 0.0
01/08:00am 9.7 7.4 4.9 72 2.2 N 6 6 3 3 - - 0.0
01/07:30am 9.8 7.3 4.8 71 2.3 NNE 7 9 4 5 - - 0.0
01/07:00am 9.5 6.6 4.9 73 2.1 NE 9 15 5 8 - - 0.0
01/06:30am 8.9 7.0 4.9 76 1.8 NE 4 9 2 5 - - 0.0
01/06:00am 8.8 7.7 5.2 78 1.6 CALM 0 4 0 2 - - 0.0
01/05:30am 9.2 6.9 5.0 75 1.9 NNE 6 7 3 4 - - 0.0
01/05:00am 9.4 7.9 5.0 74 2.0 N 2 4 1 2 - - 0.0
01/04:30am 9.5 7.2 4.9 73 2.1 N 6 7 3 4 - - 0.0
01/04:00am 10.2 8.2 4.6 68 2.6 NNE 4 9 2 5 - - 0.0
01/03:30am 9.9 7.2 5.5 74 2.0 ENE 9 17 5 9 - - 0.0
01/03:00am 9.3 7.0 4.9 74 2.0 NE 6 7 3 4 - - 0.0
01/02:30am 9.8 7.3 5.0 72 2.2 NNE 7 9 4 5 - - 0.0
01/02:00am 10.1 7.3 5.3 72 2.2 NE 9 13 5 7 - - 0.0
01/01:30am 9.8 7.3 5.0 72 2.2 NNE 7 11 4 6 - - 0.0
01/01:00am 10.5 7.3 5.3 70 2.4 NNE 11 15 6 8 - - 0.0
01/12:30am 11.1 8.7 5.4 68 2.7 NNE 7 11 4 6 - - 0.0
01/12:00am 12.0 9.3 5.4 64 3.1 N 9 15 5 8 - - 0.0
 
Date/Time
EST
Temp
°C
App
Temp
°C
Dew
Point
Rel
Hum
%
Delta-T
°C
Wind Press
QNH
hPa
Press
MSL
hPa
Rain
since 9 am
mm
Dir
 
Spd
km/h
Gust
km/h
Spd
kts
Gust
kts
31/11:30pm 12.2 9.8 5.4 63 3.2 NNE 7 13 4 7 - - 0.0
31/11:00pm 11.9 9.1 5.3 64 3.1 NNE 9 13 5 7 - - 0.0
31/10:30pm 12.1 10.0 5.7 65 3.0 NNE 6 7 3 4 - - 0.0
31/10:00pm 12.9 11.0 6.5 65 3.1 NNE 6 13 3 7 - - 0.0
31/09:30pm 11.4 10.2 6.5 72 2.4 NNE 2 6 1 3 - - 0.0
31/09:00pm 12.4 11.0 7.1 70 2.6 NNE 4 7 2 4 - - 0.0
31/08:30pm 10.8 10.1 6.9 77 1.9 CALM 0 0 0 0 - - 0.0
31/08:00pm 11.7 10.2 6.8 72 2.4 NW 4 6 2 3 - - 0.0
31/07:30pm 13.9 12.2 7.4 65 3.2 NNE 6 9 3 5 - - 0.0
31/07:00pm 14.2 12.3 7.5 64 3.4 NE 7 11 4 6 - - 0.0
31/06:30pm 14.4 12.7 7.7 64 3.4 NE 6 9 3 5 - - 0.0
31/06:00pm 14.7 12.8 7.7 63 3.5 NE 7 9 4 5 - - 0.0
31/05:30pm 15.7 14.0 7.7 59 4.1 NNE 6 11 3 6 - - 0.0
31/05:00pm 16.5 13.9 7.7 56 4.5 NNE 11 17 6 9 - - 0.0
31/04:30pm 17.0 14.0 7.9 55 4.7 NNE 13 22 7 12 - - 0.0
31/04:00pm 17.9 14.8 8.7 55 4.8 NNE 15 22 8 12 - - 0.0
31/03:30pm 17.2 14.0 8.4 56 4.6 NNE 15 22 8 12 - - 0.0
31/03:00pm 17.0 14.1 8.2 56 4.5 NNE 13 20 7 11 - - 0.0
31/02:30pm 16.8 13.8 7.7 55 4.6 N 13 20 7 11 - - 0.0
31/02:00pm 16.8 13.8 7.7 55 4.6 NNE 13 19 7 10 - - 0.0
31/01:30pm 17.0 13.1 7.1 52 5.0 N 17 24 9 13 - - 0.0
31/01:00pm 17.6 14.1 7.1 50 5.3 N 15 22 8 12 - - 0.0
31/12:30pm 16.6 12.2 6.7 52 5.0 NE 19 26 10 14 - - 0.0
31/12:00pm 16.3 13.1 7.0 54 4.7 NNE 13 22 7 12 - - 0.0
31/11:30am 16.1 13.6 8.3 60 4.0 NNE 11 17 6 9 - - 0.0
31/11:00am 15.0 12.3 7.3 60 3.9 N 11 19 6 10 - - 0.0
31/10:30am 14.4 11.7 7.2 62 3.6 NNE 11 19 6 10 - - 0.0
31/10:00am 13.4 10.5 6.7 64 3.3 N 11 15 6 8 - - 0.0
31/09:30am 13.0 11.1 7.7 70 2.6 NE 7 11 4 6 - - 0.0
31/09:00am 11.8 10.0 7.9 77 1.9 ENE 7 11 4 6 - - 0.0
31/08:30am 10.7 9.3 9.5 92 0.6 ESE 7 9 4 5 - - 0.0
31/08:00am 7.8 6.1 7.7 99 0.0 SSE 6 6 3 3 - - 0.0
31/07:30am 4.7 2.2 4.6 99 0.0 SSE 7 7 4 4 - - 0.0
31/07:00am 2.4 -0.6 2.3 99 0.0 SSE 7 9 4 5 - - 0.0
31/06:30am 2.7 -0.6 2.6 99 0.0 SSW 9 9 5 5 - - 0.0
31/06:00am 2.6 -0.4 2.3 98 0.1 SSE 7 9 4 5 - - 0.0
31/05:30am 2.6 -0.7 2.3 98 0.1 SSE 9 11 5 6 - - 0.0
31/05:00am 3.2 0.0 2.9 98 0.1 S 9 11 5 6 - - 0.0
31/04:30am 3.8 0.3 3.5 98 0.1 S 11 11 6 6 - - 0.0
31/04:00am 3.3 -0.3 3.0 98 0.1 S 11 11 6 6 - - 0.0
31/03:30am 3.8 0.3 3.5 98 0.1 S 11 11 6 6 - - 0.0
31/03:00am 3.7 0.9 3.3 97 0.2 SSW 7 9 4 5 - - 0.0
31/02:30am 4.4 1.4 4.0 97 0.2 S 9 13 5 7 - - 0.0
31/02:00am 4.3 0.9 3.9 97 0.2 SSW 11 13 6 7 - - 0.0
31/01:30am 4.4 1.3 3.8 96 0.3 S 9 13 5 7 - - 0.0
31/01:00am 5.2 1.9 4.8 97 0.2 S 11 13 6 7 - - 0.0
31/12:30am 4.5 1.5 3.9 96 0.3 SSW 9 11 5 6 - - 0.0
31/12:00am 4.9 1.9 4.2 95 0.3 SSW 9 9 5 5 - - 0.0
 
Date/Time
EST
Temp
°C
App
Temp
°C
Dew
Point
Rel
Hum
%
Delta-T
°C
Wind Press
QNH
hPa
Press
MSL
hPa
Rain
since 9 am
mm
Dir
 
Spd
km/h
Gust
km/h
Spd
kts
Gust
kts
30/11:30pm 5.3 2.4 4.4 94 0.4 SSW 9 11 5 6 - - 0.0
30/11:00pm 5.6 2.7 4.6 93 0.4 S 9 9 5 5 - - 0.0
30/10:30pm 6.5 3.4 5.6 94 0.4 S 11 13 6 7 - - 0.0
30/10:00pm 6.0 3.2 5.1 94 0.4 S 9 9 5 5 - - 0.0
30/09:30pm 6.5 3.8 5.6 94 0.4 S 9 11 5 6 - - 0.0
30/09:00pm 6.9 4.2 5.8 93 0.5 SSW 9 9 5 5 - - 0.0
30/08:30pm 7.1 4.8 5.7 91 0.6 S 7 9 4 5 - - 0.0
30/08:00pm 7.5 5.4 5.8 89 0.8 SSE 6 6 3 3 - - 0.0
30/07:30pm 8.2 6.6 6.2 87 0.9 NNE 4 7 2 4 - - 0.0
30/07:00pm 10.2 9.0 6.5 78 1.8 NNE 2 4 1 2 - - 0.0
30/06:30pm 11.8 10.7 6.7 71 2.5 NNE 2 2 1 1 - - 0.0
30/06:00pm 13.8 13.2 7.6 66 3.1 CALM 0 2 0 1 - - 0.0
30/05:30pm 15.2 13.4 7.3 59 4.0 N 6 7 3 4 - - 0.0
30/05:00pm 16.4 14.4 7.3 55 4.6 NNE 7 15 4 8 - - 0.0
30/04:30pm 16.9 14.7 7.8 55 4.7 N 9 17 5 9 - - 0.0
30/04:00pm 17.5 15.3 7.8 53 5.0 NNE 9 17 5 9 - - 0.0
30/03:30pm 17.4 14.8 7.7 53 5.0 N 11 19 6 10 - - 0.0

Other Formats:

Comma delimited format used in spreadsheet applications
http://www.bom.gov.au/fwo/IDV60801/IDV60801.94859.axf

JavaScript Object Notation format (JSON) in row-major order
http://www.bom.gov.au/fwo/IDV60801/IDV60801.94859.json